createdAt,value
2022-08-29T00:00:22.911Z,3.58
2022-08-29T00:02:52.933Z,4.03
2022-08-29T00:05:25.168Z,3.90
2022-08-29T00:07:54.269Z,3.90
2022-08-29T00:10:24.175Z,3.70
2022-08-29T00:12:52.696Z,3.55
2022-08-29T00:15:22.264Z,4.25
2022-08-29T00:17:50.642Z,4.20
2022-08-29T00:20:21.702Z,3.50
2022-08-29T00:22:58.400Z,4.22
2022-08-29T00:25:28.613Z,4.47
2022-08-29T00:27:56.819Z,3.78
2022-08-29T00:30:25.755Z,3.85
2022-08-29T00:32:54.742Z,4.03
2022-08-29T00:35:26.756Z,3.58
2022-08-29T00:37:55.776Z,4.13
2022-08-29T00:40:27.028Z,4.00
2022-08-29T00:42:57.004Z,4.65
2022-08-29T00:45:25.568Z,4.13
2022-08-29T00:47:58.338Z,3.80
2022-08-29T00:50:31.630Z,5.13
2022-08-29T00:53:01.458Z,5.10
2022-08-29T00:55:33.652Z,3.88
2022-08-29T00:58:06.352Z,4.40
2022-08-29T01:00:35.029Z,3.88
2022-08-29T01:03:04.779Z,4.28
2022-08-29T01:05:33.899Z,3.92
2022-08-29T01:08:02.285Z,4.55
2022-08-29T01:10:47.196Z,4.30
2022-08-29T01:13:16.904Z,4.40
2022-08-29T01:15:46.646Z,4.03
2022-08-29T01:18:16.660Z,3.80
2022-08-29T01:21:00.163Z,4.72
2022-08-29T01:23:35.160Z,4.85
2022-08-29T01:26:06.085Z,4.60
2022-08-29T01:28:37.792Z,4.45
2022-08-29T01:31:09.438Z,5.57
2022-08-29T01:33:45.211Z,4.90
2022-08-29T01:36:17.825Z,4.53
2022-08-29T01:38:46.517Z,5.38
2022-08-29T01:41:18.229Z,4.25
2022-08-29T01:43:51.971Z,4.72
2022-08-29T01:46:22.649Z,5.07
2022-08-29T01:48:51.170Z,5.07
2022-08-29T01:51:20.103Z,5.25
2022-08-29T01:53:48.704Z,5.43
2022-08-29T01:56:21.544Z,4.85
2022-08-29T01:58:52.840Z,5.13
2022-08-29T02:01:25.396Z,5.43
2022-08-29T02:03:54.037Z,5.63
2022-08-29T02:06:22.683Z,5.28
2022-08-29T02:08:50.974Z,5.28
2022-08-29T02:11:20.982Z,4.55
2022-08-29T02:13:52.063Z,5.43
2022-08-29T02:16:21.637Z,5.35
2022-08-29T02:18:50.023Z,4.45
2022-08-29T02:21:20.524Z,4.88
2022-08-29T02:23:50.172Z,5.00
2022-08-29T02:26:21.239Z,4.82
2022-08-29T02:28:50.609Z,4.65
2022-08-29T02:31:20.447Z,4.00
2022-08-29T02:33:48.863Z,5.25
2022-08-29T02:36:19.275Z,4.13
2022-08-29T02:38:48.348Z,4.18
2022-08-29T02:41:16.821Z,4.20
2022-08-29T02:43:46.424Z,3.80
2022-08-29T02:46:17.556Z,4.30
2022-08-29T02:48:47.647Z,4.10
2022-08-29T02:51:28.857Z,4.78
2022-08-29T02:53:58.147Z,4.72
2022-08-29T02:56:26.859Z,4.65
2022-08-29T02:58:56.487Z,5.82
2022-08-29T03:01:26.186Z,5.40
2022-08-29T03:03:55.403Z,6.60
2022-08-29T03:06:24.000Z,5.47
2022-08-29T03:08:54.089Z,5.68
2022-08-29T03:11:23.711Z,6.40
2022-08-29T03:13:52.166Z,6.72
2022-08-29T03:16:27.354Z,6.75
2022-08-29T03:18:56.184Z,7.95
2022-08-29T03:21:26.576Z,7.28
2022-08-29T03:23:56.667Z,7.47
2022-08-29T03:26:25.778Z,6.72
2022-08-29T03:28:54.261Z,7.05
2022-08-29T03:31:23.092Z,6.47
2022-08-29T03:33:52.852Z,8.10
2022-08-29T03:36:21.513Z,7.78
2022-08-29T03:38:49.863Z,7.50
2022-08-29T03:41:22.958Z,7.75
2022-08-29T03:43:51.864Z,8.15
2022-08-29T03:46:20.256Z,7.97
2022-08-29T03:48:49.206Z,8.80
2022-08-29T03:51:19.018Z,7.18
2022-08-29T03:53:47.851Z,7.80
2022-08-29T03:56:18.921Z,8.23
2022-08-29T03:58:52.615Z,8.88
2022-08-29T04:01:22.731Z,7.18
2022-08-29T04:03:51.553Z,6.43
2022-08-29T04:06:22.374Z,7.38
2022-08-29T04:08:51.702Z,7.85
2022-08-29T04:11:21.989Z,6.22
2022-08-29T04:13:50.202Z,7.55
2022-08-29T04:16:20.642Z,8.52
2022-08-29T04:18:49.213Z,8.73
2022-08-29T04:21:18.546Z,8.02
2022-08-29T04:23:48.351Z,9.07
2022-08-29T04:29:08.278Z,8.85
2022-08-29T04:31:38.415Z,9.07
2022-08-29T04:34:08.806Z,9.70
2022-08-29T04:36:37.890Z,8.70
2022-08-29T04:39:08.461Z,7.95
2022-08-29T04:41:37.622Z,7.68
2022-08-29T04:44:06.624Z,8.05
2022-08-29T04:46:35.111Z,7.93
2022-08-29T04:49:04.608Z,7.80
2022-08-29T04:51:34.557Z,8.60
2022-08-29T04:54:03.694Z,7.93
2022-08-29T04:56:34.744Z,8.05
2022-08-29T04:59:03.138Z,9.35
2022-08-29T05:01:33.048Z,7.88
2022-08-29T05:04:01.408Z,9.63
2022-08-29T05:06:29.735Z,9.63
2022-08-29T05:08:59.905Z,8.95
2022-08-29T05:11:30.865Z,11.13
2022-08-29T05:14:01.571Z,10.65
2022-08-29T05:16:31.777Z,12.90
2022-08-29T05:19:02.077Z,10.63
2022-08-29T05:21:35.645Z,11.02
2022-08-29T05:24:07.227Z,10.23
2022-08-29T05:26:37.928Z,11.27
2022-08-29T05:29:09.226Z,10.93
2022-08-29T05:31:38.288Z,12.00
2022-08-29T05:34:11.244Z,9.02
2022-08-29T05:36:55.262Z,11.00
2022-08-29T05:39:23.569Z,12.65
2022-08-29T05:41:55.188Z,10.82
2022-08-29T05:44:25.399Z,9.50
2022-08-29T05:46:53.658Z,9.80
2022-08-29T05:49:22.217Z,10.40
2022-08-29T05:51:53.338Z,10.25
2022-08-29T05:54:21.760Z,10.20
2022-08-29T05:56:49.969Z,10.05
2022-08-29T05:59:20.055Z,9.25
2022-08-29T06:01:49.823Z,8.52
2022-08-29T06:04:18.789Z,9.45
2022-08-29T06:06:47.256Z,9.02
2022-08-29T06:09:15.553Z,7.32
2022-08-29T06:11:48.399Z,6.68
2022-08-29T06:14:18.236Z,7.65
2022-08-29T06:16:46.638Z,8.05
2022-08-29T06:19:16.365Z,8.95
2022-08-29T06:21:44.959Z,8.10
2022-08-29T06:24:13.469Z,9.20
2022-08-29T06:26:41.751Z,6.93
2022-08-29T06:29:10.987Z,8.25
2022-08-29T06:31:40.185Z,7.38
2022-08-29T06:34:09.809Z,7.93
2022-08-29T06:36:39.915Z,9.48
2022-08-29T06:39:11.322Z,8.95
2022-08-29T06:41:42.128Z,7.38
2022-08-29T06:44:14.925Z,8.13
2022-08-29T06:46:45.126Z,7.38
2022-08-29T06:49:15.961Z,6.97
2022-08-29T06:51:49.359Z,7.07
2022-08-29T06:54:18.604Z,7.65
2022-08-29T06:56:47.191Z,6.07
2022-08-29T06:59:15.646Z,7.38
2022-08-29T07:01:45.012Z,6.95
2022-08-29T07:04:14.691Z,7.75
2022-08-29T07:06:45.335Z,7.80
2022-08-29T07:09:14.862Z,7.15
2022-08-29T19:11:47.059Z,4.85
2022-08-29T19:14:15.568Z,4.43
2022-08-29T19:16:44.048Z,4.88
2022-08-29T19:19:13.483Z,4.45
2022-08-29T19:21:42.506Z,4.93
2022-08-29T19:24:10.740Z,4.22
2022-08-29T19:26:40.135Z,5.63
2022-08-29T19:29:14.147Z,6.07
2022-08-29T19:31:44.889Z,5.68
2022-08-29T19:34:13.195Z,6.10
2022-08-29T19:36:43.092Z,4.72
2022-08-29T19:39:15.793Z,5.13
2022-08-29T19:41:44.071Z,4.72
2022-08-29T19:44:14.513Z,5.22
2022-08-29T19:46:49.112Z,5.22
2022-08-29T19:49:18.116Z,5.00
2022-08-29T19:51:47.616Z,5.00
2022-08-29T19:54:16.546Z,6.35
2022-08-29T19:56:46.732Z,6.00
2022-08-29T19:59:17.270Z,6.07
2022-08-29T20:01:47.152Z,6.43
2022-08-29T20:04:15.508Z,6.72
2022-08-29T20:06:46.395Z,7.00
2022-08-29T20:09:16.604Z,6.43
2022-08-29T20:11:44.867Z,6.10
2022-08-29T20:14:14.006Z,5.32
2022-08-29T20:16:44.638Z,5.32
2022-08-29T20:19:13.549Z,5.13
2022-08-29T20:21:43.367Z,5.00
2022-08-29T20:24:15.767Z,5.57
2022-08-29T20:26:46.791Z,5.07
2022-08-29T20:29:17.038Z,5.35
2022-08-29T20:31:46.968Z,4.43
2022-08-29T20:34:16.212Z,5.75
2022-08-29T20:37:01.990Z,5.43
2022-08-29T20:39:30.443Z,5.72
2022-08-29T20:42:01.376Z,6.75
2022-08-29T20:44:34.233Z,6.65
2022-08-29T20:47:04.169Z,6.65
2022-08-29T20:49:32.990Z,6.72
2022-08-29T20:52:02.656Z,7.30
2022-08-29T20:54:31.133Z,5.97
2022-08-29T20:56:59.544Z,5.80
2022-08-29T20:59:30.512Z,6.13
2022-08-29T21:02:04.600Z,6.10
2022-08-29T21:04:50.366Z,5.63
2022-08-29T21:07:20.694Z,6.25
2022-08-29T21:09:51.975Z,5.97
2022-08-29T21:12:21.445Z,6.38
2022-08-29T21:14:50.010Z,6.72
2022-08-29T21:17:19.787Z,6.32
2022-08-29T21:19:48.099Z,6.53
2022-08-29T21:22:16.487Z,6.03
2022-08-29T21:24:44.961Z,6.43
2022-08-29T21:27:13.356Z,6.82
2022-08-29T21:29:43.667Z,7.00
2022-08-29T21:32:12.070Z,6.75
2022-08-29T21:34:41.676Z,6.90
2022-08-29T21:37:10.106Z,6.97
2022-08-29T21:39:38.360Z,7.00
2022-08-29T21:42:08.036Z,7.00
2022-08-29T21:44:36.429Z,7.78
2022-08-29T21:47:04.825Z,6.80
2022-08-29T21:49:33.241Z,6.38
2022-08-29T21:52:03.196Z,8.25
2022-08-29T21:54:31.526Z,7.50
2022-08-29T21:56:59.760Z,7.53
2022-08-29T21:59:28.754Z,7.43
2022-08-29T22:01:57.117Z,7.75
2022-08-29T22:04:28.092Z,8.27
2022-08-29T22:06:59.307Z,7.30
2022-08-29T22:09:30.031Z,7.55
2022-08-29T22:11:58.841Z,7.28
2022-08-29T22:14:48.014Z,7.10
2022-08-29T22:17:16.392Z,7.38
2022-08-29T22:19:44.582Z,8.13
2022-08-29T22:22:13.020Z,8.73
2022-08-29T22:24:42.594Z,8.45
2022-08-29T22:27:10.822Z,8.35
2022-08-29T22:29:39.024Z,8.50
2022-08-29T22:32:07.633Z,8.63
2022-08-29T22:34:35.862Z,7.72
2022-08-29T22:37:04.356Z,8.32
2022-08-29T22:39:32.683Z,7.75
2022-08-29T22:42:02.581Z,8.13
2022-08-29T22:47:20.385Z,9.38
2022-08-29T22:49:48.916Z,10.57
2022-08-29T22:52:17.294Z,10.25
2022-08-29T22:54:46.133Z,10.27
2022-08-29T22:57:19.053Z,9.85
2022-08-29T22:59:49.308Z,9.88
2022-08-29T23:02:18.549Z,9.38
2022-08-29T23:04:47.679Z,10.63
2022-08-29T23:07:16.264Z,10.00
2022-08-29T23:09:45.367Z,9.40
2022-08-29T23:12:15.918Z,9.60
2022-08-29T23:14:46.470Z,10.35
2022-08-29T23:17:15.830Z,11.55
2022-08-29T23:19:44.792Z,9.90
2022-08-29T23:22:14.655Z,9.90
2022-08-29T23:24:57.952Z,10.20
2022-08-29T23:27:29.804Z,9.55
2022-08-29T23:29:58.655Z,9.85
2022-08-29T23:32:27.045Z,8.55
2022-08-29T23:34:55.219Z,8.88
2022-08-29T23:37:23.900Z,8.88
2022-08-29T23:39:52.157Z,9.88
2022-08-29T23:42:20.429Z,9.13
2022-08-29T23:44:50.031Z,9.23
2022-08-29T23:47:18.669Z,8.15
2022-08-29T23:49:46.958Z,8.05
2022-08-29T23:52:15.189Z,8.10
2022-08-29T23:54:43.595Z,8.18
2022-08-29T23:57:11.815Z,7.85
2022-08-29T23:59:57.205Z,8.18
